Time;durP1;ratioP1;P1;durP2;ratioP2;P2;SDS_P1;SDS_P2;PMS_P1;PMS_P2;Temp;Humidity;BMP_temperature;BMP_pressure;BME280_temperature;BME280_humidity;BME280_pressure;Samples;Min_cycle;Max_cycle;Signal;HPM_P1;HPM_P2
2024/02/12 00:00:44;;;;;;;;;;;;;;;5.15;100.00;94891.75;5105169;28;20215;-72
2024/02/12 00:03:18;;;;;;;;;;;;;;;5.12;100.00;94892.19;5105786;28;20230;-85
2024/02/12 00:05:47;;;;;;;;;;;;;;;5.15;100.00;94902.16;5087127;28;19938;-67
2024/02/12 00:08:15;;;;;;;;;;;;;;;5.16;100.00;94898.53;5105569;28;19957;-71
2024/02/12 00:10:41;;;;;;;;;;;;;;;5.18;100.00;94896.50;5104970;28;19941;-71
2024/02/12 00:13:07;;;;;;;;;;;;;;;5.18;100.00;94899.88;5104977;28;19937;-71
2024/02/12 00:15:33;;;;;;;;;;;;;;;5.15;100.00;94897.75;5087494;28;19979;-70
2024/02/12 00:17:59;;;;;;;;;;;;;;;5.13;100.00;94904.19;5104081;28;19940;-71
2024/02/12 00:20:29;;;;;;;;;;;;;;;5.09;100.00;94899.41;5105612;28;19940;-70
2024/02/12 00:22:55;;;;;;;;;;;;;;;5.05;100.00;94895.66;5104789;28;20100;-69
2024/02/12 00:25:21;;;;;;;;;;;;;;;5.04;100.00;94896.69;5105347;28;19942;-66
2024/02/12 00:27:48;;;;;;;;;;;;;;;5.05;100.00;94894.88;5104664;28;19936;-65
2024/02/12 00:30:15;;;;;;;;;;;;;;;5.01;100.00;94899.72;5104692;28;19943;-65
2024/02/12 00:32:43;;;;;;;;;;;;;;;5.01;100.00;94901.53;5104547;28;19942;-66
2024/02/12 00:35:10;;;;;;;;;;;;;;;4.99;100.00;94899.16;5104742;28;19964;-65
2024/02/12 00:37:39;;;;;;;;;;;;;;;5.01;100.00;94899.72;5104553;28;20232;-66
2024/02/12 00:40:09;;;;;;;;;;;;;;;5.01;100.00;94899.72;5104476;28;19938;-70
2024/02/12 00:42:36;;;;;;;;;;;;;;;5.02;100.00;94896.13;5105332;28;19938;-71
2024/02/12 00:45:03;;;;;;;;;;;;;;;5.00;100.00;94899.97;5104398;28;19943;-70
2024/02/12 00:47:30;;;;;;;;;;;;;;;4.99;100.00;94900.97;5087132;28;19956;-70
2024/02/12 00:49:56;;;;;;;;;;;;;;;4.96;100.00;94898.81;5104311;28;19949;-71
2024/02/12 00:52:25;;;;;;;;;;;;;;;4.97;100.00;94895.19;5104357;28;19939;-70
2024/02/12 00:54:52;;;;;;;;;;;;;;;4.97;100.00;94901.16;5104198;28;20150;-70
2024/02/12 00:57:22;;;;;;;;;;;;;;;4.97;100.00;94908.19;5104365;28;20268;-70
2024/02/12 00:59:48;;;;;;;;;;;;;;;4.97;100.00;94906.38;5105066;28;19942;-65
2024/02/12 01:02:14;;;;;;;;;;;;;;;4.96;100.00;94915.19;5104246;28;19933;-72
2024/02/12 01:04:40;;;;;;;;;;;;;;;4.95;100.00;94911.00;5104343;28;19938;-73
2024/02/12 01:07:06;;;;;;;;;;;;;;;5.03;100.00;94917.69;5104185;28;19938;-72
2024/02/12 01:09:32;;;;;;;;;;;;;;;5.09;100.00;94919.41;5104147;28;19957;-71
2024/02/12 01:11:59;;;;;;;;;;;;;;;5.08;100.00;94910.84;5104121;28;19950;-72
2024/02/12 01:14:26;;;;;;;;;;;;;;;5.07;100.00;94911.81;5104009;28;20279;-72
2024/02/12 01:16:53;;;;;;;;;;;;;;;5.06;100.00;94918.06;5104863;28;19942;-71
2024/02/12 01:19:19;;;;;;;;;;;;;;;5.05;100.00;94924.25;5103267;28;19948;-66
2024/02/12 01:21:45;;;;;;;;;;;;;;;5.05;100.00;94923.47;5104265;28;19946;-71
2024/02/12 01:24:14;;;;;;;;;;;;;;;5.03;100.00;94918.47;5103942;28;19943;-70
2024/02/12 01:26:44;;;;;;;;;;;;;;;5.03;100.00;94923.66;5103898;28;19949;-71
2024/02/12 01:29:11;;;;;;;;;;;;;;;5.03;100.00;94928.09;5086921;28;19940;-71
2024/02/12 01:31:37;;;;;;;;;;;;;;;5.03;100.00;94931.47;5108038;28;19942;-71
2024/02/12 01:34:06;;;;;;;;;;;;;;;5.05;100.00;94937.22;5107838;28;19942;-70
2024/02/12 01:36:32;;;;;;;;;;;;;;;5.06;100.00;94925.84;5108483;28;19934;-71
2024/02/12 01:38:58;;;;;;;;;;;;;;;5.06;100.00;94933.63;5107921;28;19933;-70
2024/02/12 01:41:24;;;;;;;;;;;;;;;5.09;100.00;94938.38;5107897;28;19971;-70
2024/02/12 01:43:51;;;;;;;;;;;;;;;5.11;100.00;94932.97;5107822;28;19940;-71
2024/02/12 01:46:19;;;;;;;;;;;;;;;5.12;100.00;94931.94;5107762;28;19955;-70
2024/02/12 01:48:45;;;;;;;;;;;;;;;5.13;100.00;94927.56;5107719;28;19934;-71
2024/02/12 01:51:12;;;;;;;;;;;;;;;5.13;100.00;94932.75;5108456;28;20124;-70
2024/02/12 01:53:38;;;;;;;;;;;;;;;5.15;100.00;94935.94;5107652;28;20217;-73
2024/02/12 01:56:08;;;;;;;;;;;;;;;5.16;100.00;94938.28;5107532;28;19952;-72
2024/02/12 01:58:34;;;;;;;;;;;;;;;5.14;100.00;94937.72;5107411;28;19965;-74
2024/02/12 02:01:00;;;;;;;;;;;;;;;5.14;100.00;94944.72;5107481;28;19935;-74
2024/02/12 02:03:27;;;;;;;;;;;;;;;5.14;100.00;94942.13;5107424;28;19955;-74
2024/02/12 02:05:53;;;;;;;;;;;;;;;5.13;100.00;94933.53;5107390;28;20247;-74
2024/02/12 02:08:19;;;;;;;;;;;;;;;5.14;100.00;94944.72;5107843;28;19960;-74
2024/02/12 02:10:48;;;;;;;;;;;;;;;5.13;100.00;94941.34;5107277;28;19959;-74
2024/02/12 02:13:17;;;;;;;;;;;;;;;5.11;100.00;94945.97;5107847;28;19945;-73
2024/02/12 02:16:03;;;;;;;;;;;;;;;5.08;100.00;94952.41;5107827;28;19970;-71
2024/02/12 02:18:31;;;;;;;;;;;;;;;5.06;100.00;94953.59;5089860;28;20128;-71
2024/02/12 02:21:14;;;;;;;;;;;;;;;5.07;100.00;94950.00;5107620;28;19934;-72
2024/02/12 02:23:40;;;;;;;;;;;;;;;5.07;100.00;94963.78;5107063;28;20018;-71
2024/02/12 02:26:06;;;;;;;;;;;;;;;5.07;100.00;94956.00;5107004;28;19976;-72
2024/02/12 02:28:31;;;;;;;;;;;;;;;5.09;100.00;94958.38;5106983;28;19958;-71
2024/02/12 02:30:57;;;;;;;;;;;;;;;5.11;100.00;94965.97;5106916;28;19943;-72
2024/02/12 02:33:23;;;;;;;;;;;;;;;5.11;100.00;94960.78;5106942;28;19939;-71
2024/02/12 02:35:49;;;;;;;;;;;;;;;5.12;100.00;94955.34;5089657;28;20278;-73
2024/02/12 02:38:15;;;;;;;;;;;;;;;5.11;100.00;94956.34;5106791;28;19937;-72
2024/02/12 02:40:42;;;;;;;;;;;;;;;5.09;100.00;94964.38;5106527;28;19934;-73
2024/02/12 02:43:08;;;;;;;;;;;;;;;5.11;100.00;94955.56;5106366;28;19951;-73
2024/02/12 02:45:34;;;;;;;;;;;;;;;5.11;100.00;94955.56;5106822;28;19931;-73
2024/02/12 02:48:07;;;;;;;;;;;;;;;5.11;100.00;94960.78;5107419;28;19941;-74
2024/02/12 02:50:34;;;;;;;;;;;;;;;5.09;100.00;94955.78;5106588;28;19930;-66
2024/02/12 02:53:01;;;;;;;;;;;;;;;5.07;100.00;94961.19;5106819;28;19950;-82
2024/02/12 02:55:28;;;;;;;;;;;;;;;5.07;100.00;94969.00;5107157;28;19979;-83
2024/02/12 02:57:54;;;;;;;;;;;;;;;5.06;100.00;94969.19;5106211;28;19967;-76
2024/02/12 03:00:20;;;;;;;;;;;;;;;5.05;100.00;94965.03;5106897;28;19945;-77
2024/02/12 03:02:46;;;;;;;;;;;;;;;5.04;100.00;94966.84;5106311;28;20101;-78
2024/02/12 03:05:12;;;;;;;;;;;;;;;5.05;100.00;94975.41;5106270;28;19937;-76
2024/02/12 03:07:43;;;;;;;;;;;;;;;5.05;100.00;94976.22;5106196;28;19939;-67
2024/02/12 03:10:12;;;;;;;;;;;;;;;5.05;100.00;94978.81;5106973;28;19953;-86
2024/02/12 03:12:38;;;;;;;;;;;;;;;5.05;100.00;94967.63;5106131;28;19937;-82
2024/02/12 03:15:11;;;;;;;;;;;;;;;5.04;100.00;94974.63;5105983;28;19981;-81
2024/02/12 03:17:39;;;;;;;;;;;;;;;5.05;100.00;94984.00;5106654;28;19935;-81
2024/02/12 03:20:05;;;;;;;;;;;;;;;5.06;100.00;94984.78;5105926;28;20243;-81
2024/02/12 03:22:33;;;;;;;;;;;;;;;5.07;100.00;94989.00;5105941;28;19936;-82
2024/02/12 03:25:00;;;;;;;;;;;;;;;5.07;100.00;94994.97;5105884;28;20108;-81
2024/02/12 03:27:26;;;;;;;;;;;;;;;5.06;100.00;94993.41;5105896;28;20250;-72
2024/02/12 03:29:52;;;;;;;;;;;;;;;5.06;100.00;94992.59;5106301;28;19938;-73
2024/02/12 03:32:18;;;;;;;;;;;;;;;5.06;100.00;94992.59;5105765;28;19944;-73
2024/02/12 03:34:44;;;;;;;;;;;;;;;5.05;100.00;94997.00;5105555;28;19938;-74
2024/02/12 03:37:13;;;;;;;;;;;;;;;5.06;100.00;94995.19;5087642;28;19944;-73
2024/02/12 03:39:39;;;;;;;;;;;;;;;5.08;100.00;95000.94;5105590;28;19940;-73
2024/02/12 03:42:08;;;;;;;;;;;;;;;5.08;100.00;95004.38;5104836;28;19946;-72
2024/02/12 03:44:34;;;;;;;;;;;;;;;5.09;100.00;95005.16;5106031;28;19939;-71
2024/02/12 03:47:00;;;;;;;;;;;;;;;5.09;100.00;95011.13;5105519;28;19937;-73
2024/02/12 04:00:30;;;;;;;;;;;;;;;5.09;100.00;95025.94;5105765;28;19938;-69
2024/02/12 04:02:58;;;;;;;;;;;;;;;5.11;100.00;95028.31;5105157;28;20248;-72
2024/02/12 04:05:24;;;;;;;;;;;;;;;5.12;100.00;95027.28;5105125;28;19934;-70
2024/02/12 04:07:50;;;;;;;;;;;;;;;5.14;100.00;95030.47;5105039;28;20106;-82
2024/02/12 04:10:16;;;;;;;;;;;;;;;5.12;100.00;95043.66;5105050;28;19939;-79
2024/02/12 04:12:43;;;;;;;;;;;;;;;5.14;100.00;95046.06;5104932;28;19936;-80
2024/02/12 04:15:11;;;;;;;;;;;;;;;5.12;100.00;95048.88;5104896;28;19963;-80
2024/02/12 04:17:37;;;;;;;;;;;;;;;5.13;100.00;95047.88;5104903;28;20100;-76
2024/02/12 04:20:05;;;;;;;;;;;;;;;5.15;100.00;95058.06;5104838;28;19956;-77
2024/02/12 04:22:35;;;;;;;;;;;;;;;5.14;100.00;95057.25;5104839;28;19941;-72
2024/02/12 04:25:01;;;;;;;;;;;;;;;5.15;100.00;95061.44;5105021;28;19935;-77
2024/02/12 04:27:28;;;;;;;;;;;;;;;5.16;100.00;95068.22;5105571;28;20103;-78
2024/02/12 04:29:56;;;;;;;;;;;;;;;5.16;100.00;95070.81;5105484;28;19943;-78
2024/02/12 04:32:23;;;;;;;;;;;;;;;5.18;100.00;95071.38;5104685;28;19994;-78
2024/02/12 04:34:48;;;;;;;;;;;;;;;5.19;100.00;95074.81;5105302;28;19942;-78
2024/02/12 04:37:14;;;;;;;;;;;;;;;5.20;100.00;95071.19;5104624;28;19946;-77
2024/02/12 04:39:40;;;;;;;;;;;;;;;5.19;100.00;95073.00;5087253;28;20118;-66
2024/02/12 04:42:06;;;;;;;;;;;;;;;5.18;100.00;95074.00;5104533;28;19944;-76
2024/02/12 04:44:32;;;;;;;;;;;;;;;5.15;100.00;95082.22;5104416;28;19939;-68
2024/02/12 04:47:02;;;;;;;;;;;;;;;5.12;100.00;95080.06;5104957;28;19936;-68
2024/02/12 04:49:28;;;;;;;;;;;;;;;5.09;100.00;95083.09;5104613;28;19942;-68
2024/02/12 04:51:54;;;;;;;;;;;;;;;5.07;100.00;95090.31;5104369;28;19942;-67
2024/02/12 04:54:23;;;;;;;;;;;;;;;5.05;100.00;95087.94;5105120;28;19942;-68
2024/02/12 04:56:49;;;;;;;;;;;;;;;5.04;100.00;95093.31;5104026;28;19969;-67
2024/02/12 04:59:16;;;;;;;;;;;;;;;5.01;100.00;95075.59;5104280;28;19946;-70
2024/02/12 05:01:42;;;;;;;;;;;;;;;5.02;100.00;95090.97;5104751;28;19937;-67
2024/02/12 05:04:08;;;;;;;;;;;;;;;5.02;100.00;95087.59;5103671;28;19939;-67
2024/02/12 05:06:36;;;;;;;;;;;;;;;5.04;100.00;95088.94;5104710;28;19948;-67
2024/02/12 05:09:04;;;;;;;;;;;;;;;5.04;100.00;95088.94;5104030;28;20006;-67
2024/02/12 05:11:30;;;;;;;;;;;;;;;5.04;100.00;95090.72;5104170;28;19943;-68
2024/02/12 05:13:56;;;;;;;;;;;;;;;5.05;100.00;95100.13;5104092;28;19940;-67
2024/02/12 05:16:34;;;;;;;;;;;;;;;5.05;100.00;95107.91;5104775;28;20245;-71
2024/02/12 05:24:33;;;;;;;;;;;;;;;5.06;100.00;95114.69;5104550;28;19948;-71
2024/02/12 05:26:59;;;;;;;;;;;;;;;5.07;100.00;95114.47;5104001;28;19949;-70
2024/02/12 05:29:25;;;;;;;;;;;;;;;5.07;100.00;95109.28;5103953;28;19936;-70
2024/02/12 05:31:51;;;;;;;;;;;;;;;5.08;100.00;95115.28;5103924;28;19941;-70
2024/02/12 05:34:20;;;;;;;;;;;;;;;5.07;100.00;95114.47;5103888;28;19937;-70
2024/02/12 05:36:55;;;;;;;;;;;;;;;5.07;100.00;95117.09;5103783;28;19950;-66
2024/02/12 05:39:21;;;;;;;;;;;;;;;5.08;100.00;95116.09;5104161;28;19934;-68
2024/02/12 05:41:47;;;;;;;;;;;;;;;5.13;100.00;95119.84;5103186;28;19941;-68
2024/02/12 05:44:13;;;;;;;;;;;;;;;5.11;100.00;95116.66;5104104;28;19944;-68
2024/02/12 05:46:39;;;;;;;;;;;;;;;5.10;100.00;95121.03;5103770;28;19936;-67
2024/02/12 05:49:06;;;;;;;;;;;;;;;5.08;100.00;95113.50;5103815;28;19940;-68
2024/02/12 05:51:33;;;;;;;;;;;;;;;5.05;100.00;95115.72;5103691;28;19940;-67
2024/02/12 05:54:01;;;;;;;;;;;;;;;5.02;100.00;95119.53;5103797;28;19963;-71
2024/02/12 05:56:28;;;;;;;;;;;;;;;4.98;100.00;95125.41;5103443;28;19957;-74
2024/02/12 05:58:54;;;;;;;;;;;;;;;5.02;100.00;95129.16;5104444;28;19938;-74
2024/02/12 06:01:20;;;;;;;;;;;;;;;5.06;100.00;95130.28;5103717;28;20242;-75
2024/02/12 06:03:46;;;;;;;;;;;;;;;5.05;100.00;95133.91;5103657;28;19939;-75
2024/02/12 06:06:12;;;;;;;;;;;;;;;5.03;100.00;95128.91;5102961;28;19943;-75
2024/02/12 06:08:38;;;;;;;;;;;;;;;5.00;100.00;95138.97;5104023;28;19960;-75
2024/02/12 06:11:04;;;;;;;;;;;;;;;4.98;100.00;95144.38;5103817;28;20223;-75
2024/02/12 06:13:30;;;;;;;;;;;;;;;4.96;100.00;95140.41;5103629;28;19937;-72
2024/02/12 06:15:56;;;;;;;;;;;;;;;4.95;100.00;95141.38;5103460;28;19963;-70
2024/02/12 06:18:22;;;;;;;;;;;;;;;4.91;100.00;95133.22;5089726;28;19946;-70
2024/02/12 06:20:48;;;;;;;;;;;;;;;4.86;100.00;95146.06;5107178;28;19947;-71
2024/02/12 06:23:14;;;;;;;;;;;;;;;4.82;100.00;95153.50;5107141;28;19944;-71
2024/02/12 06:25:40;;;;;;;;;;;;;;;4.87;100.00;95158.03;5107092;28;19944;-70
2024/02/12 06:28:09;;;;;;;;;;;;;;;4.87;100.00;95152.84;5107066;28;20253;-70
2024/02/12 06:30:35;;;;;;;;;;;;;;;4.85;100.00;95155.69;5107534;28;19946;-65
2024/02/12 06:33:03;;;;;;;;;;;;;;;4.80;100.00;95159.91;5107542;28;19950;-80
2024/02/12 06:35:29;;;;;;;;;;;;;;;4.78;100.00;95164.53;5106840;28;19955;-71
2024/02/12 06:38:00;;;;;;;;;;;;;;;4.76;100.00;95164.72;5107389;28;19958;-71
2024/02/12 06:40:26;;;;;;;;;;;;;;;4.75;100.00;95172.75;5106776;28;20102;-71
2024/02/12 06:42:52;;;;;;;;;;;;;;;4.72;100.00;95171.34;5106729;28;19939;-71
2024/02/12 06:45:18;;;;;;;;;;;;;;;4.65;100.00;95178.41;5107283;28;19938;-71
2024/02/12 06:47:44;;;;;;;;;;;;;;;4.63;100.00;95176.00;5106708;28;20018;-71
2024/02/12 06:50:10;;;;;;;;;;;;;;;4.60;100.00;95186.84;5106678;28;19940;-69
2024/02/12 06:52:56;;;;;;;;;;;;;;;4.61;100.00;95195.41;5092205;28;19963;-81
2024/02/12 06:55:21;;;;;;;;;;;;;;;4.64;100.00;95201.00;5106530;28;20104;-80
2024/02/12 06:57:47;;;;;;;;;;;;;;;4.69;100.00;95200.34;5106703;28;19998;-82
2024/02/12 07:00:16;;;;;;;;;;;;;;;4.73;100.00;95203.31;5106422;28;20313;-80
2024/02/12 07:02:43;;;;;;;;;;;;;;;4.76;100.00;95214.06;5106852;28;19932;-83
2024/02/12 07:05:12;;;;;;;;;;;;;;;4.75;100.00;95207.28;5106331;28;19941;-87
2024/02/12 07:07:39;;;;;;;;;;;;;;;4.76;100.00;95208.88;5106207;28;20001;-67
2024/02/12 07:10:05;;;;;;;;;;;;;;;4.76;100.00;95205.50;5106169;28;19944;-73
2024/02/12 07:12:31;;;;;;;;;;;;;;;4.77;100.00;95222.69;5106210;28;20136;-76
2024/02/12 07:14:57;;;;;;;;;;;;;;;4.79;100.00;95218.06;5106667;28;19933;-74
2024/02/12 07:17:22;;;;;;;;;;;;;;;4.82;100.00;95222.81;5106578;28;20005;-74
2024/02/12 07:19:51;;;;;;;;;;;;;;;4.84;100.00;95226.78;5106844;28;19937;-73
2024/02/12 07:22:21;;;;;;;;;;;;;;;4.87;100.00;95233.38;5105969;28;19941;-74
2024/02/12 07:24:50;;;;;;;;;;;;;;;4.87;100.00;95230.75;5105907;28;19945;-76
2024/02/12 07:27:18;;;;;;;;;;;;;;;4.86;100.00;95235.16;5105594;28;20129;-82
2024/02/12 07:29:44;;;;;;;;;;;;;;;4.85;100.00;95228.41;5105868;28;20131;-71
2024/02/12 07:32:13;;;;;;;;;;;;;;;4.84;100.00;95234.59;5106575;28;20242;-71
2024/02/12 07:34:40;;;;;;;;;;;;;;;4.87;100.00;95246.34;5105765;28;19944;-71
2024/02/12 07:37:06;;;;;;;;;;;;;;;4.90;100.00;95245.16;5105623;28;19951;-73
2024/02/12 07:39:33;;;;;;;;;;;;;;;4.92;100.00;95245.75;5105668;28;19938;-71
2024/02/12 07:41:59;;;;;;;;;;;;;;;4.94;100.00;95247.13;5105563;28;20267;-71
2024/02/12 07:44:25;;;;;;;;;;;;;;;4.95;100.00;95243.50;5105735;28;19945;-73
2024/02/12 07:46:51;;;;;;;;;;;;;;;4.98;100.00;95245.69;5106086;28;19937;-65
2024/02/12 07:49:19;;;;;;;;;;;;;;;5.01;100.00;95254.84;5105503;28;19975;-65
2024/02/12 07:51:45;;;;;;;;;;;;;;;5.07;100.00;95259.19;5105364;28;19942;-65
2024/02/12 07:54:11;;;;;;;;;;;;;;;5.12;100.00;95253.38;5105350;28;20249;-65
2024/02/12 07:56:36;;;;;;;;;;;;;;;5.14;100.00;95259.94;5105766;28;19995;-65
2024/02/12 07:59:02;;;;;;;;;;;;;;;5.18;100.00;95262.91;5105291;28;19941;-65
2024/02/12 08:01:29;;;;;;;;;;;;;;;5.22;100.00;95264.06;5105237;28;19963;-65
2024/02/12 08:03:55;;;;;;;;;;;;;;;5.24;100.00;95275.84;5106029;28;19941;-80
2024/02/12 08:06:21;;;;;;;;;;;;;;;5.30;100.00;95284.59;5105158;28;19939;-71
2024/02/12 08:08:49;;;;;;;;;;;;;;;5.34;100.00;95275.38;5105080;28;20000;-71
2024/02/12 08:11:17;;;;;;;;;;;;;;;5.41;100.00;95283.09;5105058;28;19959;-71
2024/02/12 08:13:43;;;;;;;;;;;;;;;5.44;100.00;95280.88;5105024;28;19940;-71
2024/02/12 08:16:09;;;;;;;;;;;;;;;5.40;100.00;95281.53;5105387;28;19950;-71
2024/02/12 08:18:45;;;;;;;;;;;;;;;5.36;100.00;95288.94;5104971;28;19937;-71
2024/02/12 08:21:11;;;;;;;;;;;;;;;5.34;100.00;95283.16;5105709;28;19943;-72
2024/02/12 08:23:37;;;;;;;;;;;;;;;5.36;100.00;95294.16;5104922;28;19949;-68
2024/02/12 08:26:05;;;;;;;;;;;;;;;5.42;100.00;95300.31;5104786;28;20082;-67
2024/02/12 08:28:31;;;;;;;;;;;;;;;5.56;100.00;95308.78;5104755;28;19934;-67
2024/02/12 08:30:57;;;;;;;;;;;;;;;5.70;100.00;95302.44;5104699;28;20241;-68
2024/02/12 08:33:25;;;;;;;;;;;;;;;5.80;100.00;95305.34;5104661;28;19938;-67
2024/02/12 08:35:51;;;;;;;;;;;;;;;5.89;100.00;95304.03;5105094;28;19959;-68
2024/02/12 08:38:17;;;;;;;;;;;;;;;5.94;100.00;95313.78;5104606;28;20139;-68
2024/02/12 08:40:43;;;;;;;;;;;;;;;5.97;100.00;95315.22;5103917;28;19971;-65
2024/02/12 08:43:08;;;;;;;;;;;;;;;5.97;100.00;95316.00;5104623;28;19938;-70
2024/02/12 08:45:35;;;;;;;;;;;;;;;5.97;100.00;95313.41;5086975;28;19938;-71
2024/02/12 08:48:06;;;;;;;;;;;;;;;6.01;100.00;95322.38;5104456;28;19945;-70
2024/02/12 08:50:34;;;;;;;;;;;;;;;6.06;100.00;95312.09;5105174;28;20172;-71
2024/02/12 08:53:00;;;;;;;;;;;;;;;6.16;100.00;95316.03;5104309;28;20309;-70
2024/02/12 08:55:26;;;;;;;;;;;;;;;6.23;100.00;95312.31;5104262;28;19936;-71
2024/02/12 08:57:54;;;;;;;;;;;;;;;6.38;100.00;95324.16;5104039;28;19963;-70
2024/02/12 09:00:22;;;;;;;;;;;;;;;6.48;100.00;95314.03;5104790;28;19945;-71
2024/02/12 09:03:01;;;;;;;;;;;;;;;6.56;100.00;95318.16;5072050;28;20227;-76
2024/02/12 09:05:27;;;;;;;;;;;;;;;6.57;100.00;95317.13;5086743;28;19938;-76
2024/02/12 09:07:53;;;;;;;;;;;;;;;6.54;100.00;95315.75;5104128;28;19947;-76
2024/02/12 09:10:19;;;;;;;;;;;;;;;6.50;100.00;95327.63;5103462;28;19951;-76
2024/02/12 09:12:46;;;;;;;;;;;;;;;6.52;100.00;95330.00;5104135;28;19934;-76
2024/02/12 09:15:14;;;;;;;;;;;;;;;6.43;100.00;95332.91;5104081;28;19947;-75
2024/02/12 09:17:40;;;;;;;;;;;;;;;6.40;100.00;95338.53;5104085;28;19952;-71
2024/02/12 09:20:06;;;;;;;;;;;;;;;6.44;100.00;95344.13;5104125;28;19977;-68
2024/02/12 09:22:35;;;;;;;;;;;;;;;6.64;100.00;95336.06;5104096;28;19935;-68
2024/02/12 09:25:03;;;;;;;;;;;;;;;6.67;100.00;95328.59;5104026;28;19939;-68
2024/02/12 09:27:30;;;;;;;;;;;;;;;6.64;100.00;95343.88;5103991;28;19941;-67
2024/02/12 09:29:57;;;;;;;;;;;;;;;6.64;100.00;95344.69;5104770;28;19943;-68
2024/02/12 09:32:24;;;;;;;;;;;;;;;6.57;100.00;95340.56;5103976;28;19931;-67
2024/02/12 09:34:50;;;;;;;;;;;;;;;6.55;100.00;95346.00;5103905;28;19939;-71
2024/02/12 09:37:18;;;;;;;;;;;;;;;6.56;100.00;95363.22;5103812;28;19955;-68
2024/02/12 09:39:44;;;;;;;;;;;;;;;6.58;100.00;95349.97;5103815;28;19943;-68
2024/02/12 09:42:12;;;;;;;;;;;;;;;6.58;100.00;95358.56;5103849;28;20132;-68
2024/02/12 09:44:41;;;;;;;;;;;;;;;6.67;100.00;95361.66;5103832;28;19944;-68
2024/02/12 09:47:10;;;;;;;;;;;;;;;6.87;100.00;95364.03;5103744;28;19935;-68
2024/02/12 09:49:35;;;;;;;;;;;;;;;7.03;100.00;95357.38;5103764;28;19940;-68
2024/02/12 09:52:03;;;;;;;;;;;;;;;7.21;100.00;95359.94;5107136;28;20004;-67
2024/02/12 09:54:30;;;;;;;;;;;;;;;7.25;100.00;95350.66;5107627;28;19947;-70
2024/02/12 09:56:57;;;;;;;;;;;;;;;7.27;100.00;95359.06;5107425;28;19967;-81
2024/02/12 09:59:23;;;;;;;;;;;;;;;7.27;100.00;95350.44;5107622;28;19938;-81
2024/02/12 10:01:49;;;;;;;;;;;;;;;7.30;100.00;95349.97;5107578;28;20000;-81
2024/02/12 10:04:37;;;;;;;;;;;;;;;7.43;100.00;95357.63;5107325;28;19946;-81
2024/02/12 10:07:22;;;;;;;;;;;;;;;7.64;100.00;95360.69;5107378;28;19939;-81
2024/02/12 10:10:08;;;;;;;;;;;;;;;7.71;100.00;95354.34;5093124;28;20208;-81
2024/02/12 10:12:54;;;;;;;;;;;;;;;7.64;100.00;95348.47;5107257;28;20261;-69
2024/02/12 10:15:40;;;;;;;;;;;;;;;7.52;100.00;95363.31;5107924;28;19941;-66
2024/02/12 10:18:26;;;;;;;;;;;;;;;7.48;100.00;95372.59;5107973;28;19943;-67
2024/02/12 10:21:12;;;;;;;;;;;;;;;7.75;100.00;95365.13;5092333;28;19937;-67
2024/02/12 10:24:01;;;;;;;;;;;;;;;8.09;100.00;95347.09;5107741;28;19941;-67
2024/02/12 10:26:50;;;;;;;;;;;;;;;8.39;100.00;95336.44;5107746;28;19960;-67
2024/02/12 10:29:37;;;;;;;;;;;;;;;8.59;100.00;95338.72;5107744;28;19943;-67
2024/02/12 10:32:23;;;;;;;;;;;;;;;8.81;100.00;95309.31;5088945;28;19948;-69
2024/02/12 10:35:11;;;;;;;;;;;;;;;8.89;100.00;95309.72;5088885;28;20228;-70
2024/02/12 10:37:57;;;;;;;;;;;;;;;8.98;100.00;95312.75;5088632;28;19963;-70
2024/02/12 10:40:44;;;;;;;;;;;;;;;8.86;100.00;95315.44;5092658;28;20119;-70
2024/02/12 10:43:34;;;;;;;;;;;;;;;8.70;100.00;95322.19;5088687;28;19945;-71
2024/02/12 10:46:20;;;;;;;;;;;;;;;8.57;100.00;95332.94;5088614;28;19943;-70
2024/02/12 10:49:06;;;;;;;;;;;;;;;8.48;100.00;95337.72;5092342;28;19958;-67
2024/02/12 10:51:56;;;;;;;;;;;;;;;8.40;100.00;95311.13;5088411;28;19936;-75
2024/02/12 10:54:43;;;;;;;;;;;;;;;8.33;100.00;95319.88;5092309;28;19944;-74
2024/02/12 10:57:09;;;;;;;;;;;;;;;8.29;100.00;95331.84;5106241;28;19968;-74
2024/02/12 10:59:35;;;;;;;;;;;;;;;8.38;100.00;95339.28;5106497;28;19961;-74
2024/02/12 11:02:11;;;;;;;;;;;;;;;8.53;100.00;95342.25;5106192;28;19939;-74
2024/02/12 11:04:40;;;;;;;;;;;;;;;8.68;100.00;95344.38;5106803;28;19945;-74
2024/02/12 11:07:09;;;;;;;;;;;;;;;8.75;100.00;95342.41;5106337;28;19937;-79
2024/02/12 11:09:35;;;;;;;;;;;;;;;8.84;100.00;95320.09;5106759;28;20265;-71
2024/02/12 11:12:00;;;;;;;;;;;;;;;9.27;100.00;95299.63;5106198;28;19942;-71
2024/02/12 11:14:32;;;;;;;;;;;;;;;9.66;100.00;95312.75;5106200;28;19982;-71
2024/02/12 11:16:58;;;;;;;;;;;;;;;10.16;100.00;95272.59;5106078;28;19950;-71
2024/02/12 11:19:24;;;;;;;;;;;;;;;10.21;100.00;95295.44;5106866;28;19945;-71
2024/02/12 11:21:54;;;;;;;;;;;;;;;10.12;100.00;95264.44;5088194;28;19957;-70
2024/02/12 11:24:20;;;;;;;;;;;;;;;10.21;100.00;95283.13;5106012;28;19941;-79
2024/02/12 11:26:49;;;;;;;;;;;;;;;10.34;100.00;95277.56;5106492;28;20199;-70
2024/02/12 11:29:18;;;;;;;;;;;;;;;10.38;100.00;95277.06;5105883;28;19947;-74
2024/02/12 11:31:44;;;;;;;;;;;;;;;10.27;100.00;95294.47;5105862;28;19932;-74
2024/02/12 11:34:11;;;;;;;;;;;;;;;10.10;100.00;95255.22;5105739;28;19940;-74
2024/02/12 11:36:37;;;;;;;;;;;;;;;9.96;100.00;95300.09;5106495;28;19954;-74
2024/02/12 11:39:03;;;;;;;;;;;;;;;9.87;100.00;95271.94;5105660;28;19934;-74
2024/02/12 11:41:32;;;;;;;;;;;;;;;9.82;100.00;95290.22;5106234;28;19938;-74
2024/02/12 11:43:58;;;;;;;;;;;;;;;9.82;100.00;95298.88;5105375;28;19937;-65
2024/02/12 11:46:24;;;;;;;;;;;;;;;9.86;100.00;95271.16;5105198;28;19946;-70
2024/02/12 11:49:00;;;;;;;;;;;;;;;9.81;100.00;95267.72;5106044;28;19931;-71
2024/02/12 11:51:29;;;;;;;;;;;;;;;9.67;100.00;95277.72;5106016;28;20232;-71
2024/02/12 11:53:54;;;;;;;;;;;;;;;9.62;100.00;95277.66;5105165;28;19936;-71
2024/02/12 11:56:21;;;;;;;;;;;;;;;9.50;100.00;95289.00;5105734;28;19946;-70
2024/02/12 11:58:52;;;;;;;;;;;;;;;9.40;100.00;95294.06;5105844;28;19939;-70
2024/02/12 12:01:18;;;;;;;;;;;;;;;9.33;100.00;95290.81;5105264;28;19947;-65
2024/02/12 12:03:44;;;;;;;;;;;;;;;9.25;100.00;95293.84;5105989;28;19940;-74
2024/02/12 12:06:12;;;;;;;;;;;;;;;9.20;100.00;95301.59;5105082;28;20113;-70
2024/02/12 12:08:38;;;;;;;;;;;;;;;9.13;100.00;95267.75;5105069;28;20143;-70
2024/02/12 12:11:07;;;;;;;;;;;;;;;9.07;100.00;95248.59;5105615;28;19939;-70
2024/02/12 12:13:33;;;;;;;;;;;;;;;9.08;100.00;95297.22;5104511;28;19942;-70
2024/02/12 12:15:59;;;;;;;;;;;;;;;9.12;100.00;95305.41;5104490;28;19938;-70
2024/02/12 12:18:25;;;;;;;;;;;;;;;9.18;100.00;95314.13;5104854;28;19953;-70
2024/02/12 12:20:54;;;;;;;;;;;;;;;9.16;100.00;95282.19;5086961;28;20159;-72
2024/02/12 12:23:20;;;;;;;;;;;;;;;9.10;100.00;95278.69;5104828;28;20235;-67
2024/02/12 12:25:47;;;;;;;;;;;;;;;9.11;100.00;95296.78;5104836;28;19948;-67
2024/02/12 12:28:14;;;;;;;;;;;;;;;9.20;100.00;95294.56;5104746;28;20130;-67
2024/02/12 12:30:39;;;;;;;;;;;;;;;9.38;100.00;95290.09;5105229;28;19939;-67
2024/02/12 12:33:07;;;;;;;;;;;;;;;9.53;100.00;95301.63;5104671;28;19969;-67
2024/02/12 12:35:34;;;;;;;;;;;;;;;9.57;100.00;95267.88;5104642;28;19954;-67
2024/02/12 12:38:08;;;;;;;;;;;;;;;9.54;100.00;95271.78;5104536;28;19948;-69
2024/02/12 12:40:34;;;;;;;;;;;;;;;9.42;100.00;95258.00;5105184;28;19943;-64
2024/02/12 12:43:01;;;;;;;;;;;;;;;9.34;100.00;95287.97;5105035;28;19953;-74
2024/02/12 12:45:27;;;;;;;;;;;;;;;9.25;100.00;95270.28;5104488;28;19935;-73
2024/02/12 12:48:03;;;;;;;;;;;;;;;9.20;100.00;95294.56;5104981;28;19939;-74
2024/02/12 12:50:29;;;;;;;;;;;;;;;9.14;100.00;95317.22;5104371;28;20252;-73
2024/02/12 12:52:55;;;;;;;;;;;;;;;9.13;100.00;95299.13;5104289;28;19937;-75
2024/02/12 12:55:21;;;;;;;;;;;;;;;9.14;100.00;95311.97;5104319;28;19941;-74
2024/02/12 12:57:49;;;;;;;;;;;;;;;9.21;100.00;95316.28;5086152;28;19969;-65
2024/02/12 13:00:26;;;;;;;;;;;;;;;9.23;100.00;95298.50;5104024;28;19944;-73
2024/02/12 13:02:56;;;;;;;;;;;;;;;9.26;100.00;95285.75;5104332;28;19936;-74
2024/02/12 13:05:22;;;;;;;;;;;;;;;9.26;100.00;95246.53;5103340;28;19950;-74
2024/02/12 13:07:49;;;;;;;;;;;;;;;9.15;100.00;95263.06;5104128;28;20253;-74